Time;durP1;ratioP1;P1;durP2;ratioP2;P2;SDS_P1;SDS_P2;PMS_P1;PMS_P2;Temp;Humidity;BMP_temperature;BMP_pressure;BME280_temperature;BME280_humidity;BME280_pressure;Samples;Min_cycle;Max_cycle;Signal;HPM_P1;HPM_P2
2021/12/15 00:00:39;;;;;;;32.80;14.00;;;;;;;4.24;90.29;98719.56;5042913;28;20041;-57
2021/12/15 00:03:07;;;;;;;35.47;15.80;;;;;;;4.25;91.08;98722.06;5043407;28;20049;-55
2021/12/15 00:05:35;;;;;;;33.95;14.70;;;;;;;4.22;90.75;98724.25;5042929;28;20048;-57
2021/12/15 00:08:07;;;;;;;29.05;14.00;;;;;;;4.26;91.17;98723.72;5045077;28;20037;-56
2021/12/15 00:10:35;;;;;;;36.17;16.00;;;;;;;4.24;90.91;98715.00;5044946;28;20600;-57
2021/12/15 00:13:01;;;;;;;27.58;13.43;;;;;;;4.33;90.60;98723.00;5045017;28;20045;-56
2021/12/15 00:15:29;;;;;;;33.22;14.55;;;;;;;4.30;90.38;98718.81;5043788;28;20045;-57
2021/12/15 00:17:57;;;;;;;30.15;13.65;;;;;;;4.32;90.11;98714.13;5042691;28;20042;-57
2021/12/15 00:20:25;;;;;;;28.90;13.05;;;;;;;4.20;90.08;98716.38;5039623;28;20037;-54
2021/12/15 00:22:55;;;;;;;29.55;13.45;;;;;;;4.20;90.42;98719.06;5043957;28;20056;-54
2021/12/15 00:25:26;;;;;;;28.30;14.40;;;;;;;4.11;90.74;98723.66;5044573;28;20114;-57
2021/12/15 00:27:53;;;;;;;34.15;16.20;;;;;;;4.09;90.89;98724.84;5044375;28;20040;-55
2021/12/15 00:30:20;;;;;;;34.95;14.68;;;;;;;4.07;91.58;98716.97;5044560;28;20475;-53
2021/12/15 00:32:48;;;;;;;29.40;14.82;;;;;;;4.15;91.04;98726.81;5046073;28;20653;-56
2021/12/15 00:35:16;;;;;;;32.03;14.75;;;;;;;4.18;90.93;98728.28;5043886;28;20389;-54
2021/12/15 00:37:43;;;;;;;32.80;14.38;;;;;;;4.23;90.74;98726.75;5043590;28;20044;-55
2021/12/15 00:40:12;;;;;;;32.42;15.88;;;;;;;4.24;90.71;98732.97;5025635;28;20049;-56
2021/12/15 00:42:39;;;;;;;32.35;15.38;;;;;;;4.23;90.81;98729.44;5043117;28;20060;-57
2021/12/15 00:45:08;;;;;;;31.52;14.40;;;;;;;4.22;90.75;98734.97;5044375;28;20098;-56
2021/12/15 00:47:35;;;;;;;27.73;14.00;;;;;;;4.13;91.06;98742.25;5042830;28;20065;-55
2021/12/15 00:50:06;;;;;;;33.03;14.88;;;;;;;4.20;90.92;98737.00;5044928;28;20777;-55
2021/12/15 00:52:34;;;;;;;35.80;15.15;;;;;;;4.14;91.28;98743.91;5039211;28;20044;-57
2021/12/15 00:55:05;;;;;;;36.33;13.77;;;;;;;4.12;91.12;98737.88;5043791;28;20466;-57
2021/12/15 00:57:32;;;;;;;37.60;15.32;;;;;;;4.21;92.04;98736.84;5044136;28;20492;-56
2021/12/15 00:59:59;;;;;;;37.20;15.60;;;;;;;4.18;91.71;98729.13;5046126;28;20043;-57
2021/12/15 01:02:26;;;;;;;40.10;16.80;;;;;;;4.27;92.27;98733.44;5031422;28;20044;-54
2021/12/15 01:04:53;;;;;;;32.88;14.73;;;;;;;4.17;91.01;98719.44;5043686;28;20053;-55
2021/12/15 01:07:20;;;;;;;38.45;15.65;;;;;;;4.15;91.41;98726.81;5044402;28;20041;-58
2021/12/15 01:09:53;;;;;;;40.08;15.70;;;;;;;4.08;91.52;98723.16;5044294;28;20048;-55
2021/12/15 01:20:49;;;;;;;37.60;14.98;;;;;;;4.06;92.17;98728.72;5042640;28;20037;-55
2021/12/15 01:23:22;;;;;;;37.30;15.38;;;;;;;4.10;92.61;98727.34;5038820;28;20170;-54
2021/12/15 01:25:54;;;;;;;;;;;;;;;4.15;92.57;98734.84;5044016;28;20048;-55
2021/12/15 01:28:21;;;;;;;42.60;16.00;;;;;;;4.20;92.55;98732.47;5043623;28;19920;-57
2021/12/15 01:30:50;;;;;;;38.70;15.23;;;;;;;4.11;91.88;98734.38;5044005;28;20606;-57
2021/12/15 01:33:17;;;;;;;40.75;15.25;;;;;;;4.19;91.60;98736.16;5025523;28;20091;-55
2021/12/15 01:35:47;;;;;;;37.60;15.75;;;;;;;4.11;91.47;98744.25;5037892;28;20049;-57
2021/12/15 01:38:15;;;;;;;47.58;15.30;;;;;;;4.07;91.99;98742.94;5034971;28;20084;-57
2021/12/15 01:40:44;;;;;;;42.08;15.43;;;;;;;4.07;92.38;98734.88;5043535;28;20033;-57
2021/12/15 01:43:21;;;;;;;48.38;16.60;;;;;;;4.06;92.22;98735.91;5043315;28;20772;-54
2021/12/15 01:48:42;;;;;;;47.15;17.38;;;;;;;4.12;92.28;98743.22;5042729;28;20056;-54
2021/12/15 01:51:11;;;;;;;46.17;18.02;;;;;;;4.14;92.20;98747.44;5042776;28;20047;-55
2021/12/15 01:53:38;;;;;;;51.10;18.27;;;;;;;4.06;92.59;98750.16;5042911;28;20037;-55
2021/12/15 01:56:06;;;;;;;65.38;21.42;;;;;;;4.10;92.83;98750.63;5042053;28;20041;-56
2021/12/15 01:58:33;;;;;;;49.83;18.83;;;;;;;4.10;92.19;98750.63;5041969;28;20107;-55
2021/12/15 02:01:06;;;;;;;42.17;17.17;;;;;;;4.13;91.65;98744.91;5040086;28;20048;-55
2021/12/15 02:03:34;;;;;;;43.28;16.77;;;;;;;4.11;92.30;98754.97;5046902;28;20037;-56
2021/12/15 02:06:03;;;;;;;42.03;15.82;;;;;;;4.08;91.67;98753.47;5046529;28;20048;-55
2021/12/15 02:08:29;;;;;;;40.05;14.55;;;;;;;4.09;91.97;98747.09;5047161;28;20056;-51
2021/12/15 02:10:56;;;;;;;42.75;15.30;;;;;;;4.10;92.17;98747.94;5047575;28;20064;-54
2021/12/15 02:13:23;;;;;;;45.28;15.68;;;;;;;4.03;92.07;98740.59;5046972;28;20052;-54
2021/12/15 02:15:56;;;;;;;42.03;17.02;;;;;;;3.96;92.32;98745.00;5047078;28;20049;-56
2021/12/15 02:18:29;;;;;;;48.70;14.77;;;;;;;3.99;92.49;98741.97;5028700;28;20047;-57
2021/12/15 02:21:10;;;;;;;38.05;13.63;;;;;;;3.91;92.29;98744.69;5045417;28;20057;-58
2021/12/15 02:23:45;;;;;;;44.58;13.57;;;;;;;3.90;92.79;98743.00;5039554;28;20045;-57
2021/12/15 02:26:24;;;;;;;41.03;14.35;;;;;;;3.80;92.77;98742.41;5019906;28;20071;-54
2021/12/15 02:28:57;;;;;;;38.63;14.00;;;;;;;3.72;92.77;98741.41;5043311;28;20040;-57
2021/12/15 02:39:15;;;;;;;35.45;12.82;;;;;;;3.85;92.51;98735.50;5045082;28;20041;-55
2021/12/15 02:41:44;;;;;;;39.00;14.05;;;;;;;3.85;92.41;98740.03;5028849;28;20107;-54
2021/12/15 02:44:17;;;;;;;37.22;13.20;;;;;;;3.92;93.01;98737.47;5042694;28;20033;-54
2021/12/15 02:46:45;;;;;;;33.80;13.48;;;;;;;3.94;92.67;98752.38;5046390;28;20045;-53
2021/12/15 02:49:16;;;;;;;43.17;15.63;;;;;;;3.97;92.53;98746.66;5046135;28;20049;-54
2021/12/15 02:51:45;;;;;;;39.97;15.85;;;;;;;3.97;92.06;98752.03;5044487;28;20086;-53
2021/12/15 02:54:14;;;;;;;40.17;13.75;;;;;;;3.96;92.29;98752.19;5045288;28;20045;-55
2021/12/15 02:56:42;;;;;;;44.75;15.38;;;;;;;4.03;92.32;98740.59;5046304;28;20053;-56
2021/12/15 02:59:12;;;;;;;39.70;15.85;;;;;;;4.00;91.92;98737.44;5046010;28;20049;-52
2021/12/15 03:01:59;;;;;;;37.63;14.32;;;;;;;4.07;91.79;98737.56;5046753;28;20049;-55
2021/12/15 03:04:43;;;;;;;35.38;13.10;;;;;;;4.06;91.24;98738.59;5045841;28;20067;-54
2021/12/15 03:15:35;;;;;;;35.17;13.93;;;;;;;4.07;91.04;98748.28;5045811;28;20049;-57
2021/12/15 03:18:12;;;;;;;32.15;12.68;;;;;;;4.10;91.79;98747.94;5046057;28;20052;-57
2021/12/15 03:20:46;;;;;;;36.78;14.15;;;;;;;4.19;91.29;98748.72;5044907;28;20115;-57
2021/12/15 03:23:17;;;;;;;39.22;13.20;;;;;;;4.14;91.17;98747.44;5045244;28;20049;-57
2021/12/15 03:25:43;;;;;;;37.27;13.10;;;;;;;4.16;90.92;98757.94;5043334;28;20099;-57
2021/12/15 03:36:40;;;;;;;39.28;14.05;;;;;;;3.76;92.23;98758.00;5035097;28;20464;-57
2021/12/15 03:39:10;;;;;;;34.08;11.75;;;;;;;3.83;92.34;98752.78;5045620;28;20716;-57
2021/12/15 03:41:37;;;;;;;31.60;12.23;;;;;;;3.93;91.92;98750.72;5045068;28;20098;-54
2021/12/15 03:44:06;;;;;;;37.17;14.63;;;;;;;3.84;91.89;98754.44;5044294;28;20470;-55
2021/12/15 03:46:33;;;;;;;31.60;14.25;;;;;;;3.71;92.53;98763.84;5045627;28;20057;-50
2021/12/15 03:49:00;;;;;;;28.30;11.65;;;;;;;3.88;92.03;98751.22;5042479;28;20084;-54
2021/12/15 03:51:26;;;;;;;33.08;12.43;;;;;;;4.06;91.31;98747.47;5049531;28;20040;-52
2021/12/15 03:53:53;;;;;;;18.98;8.43;;;;;;;3.90;89.72;98751.03;5045333;28;20033;-54
2021/12/15 03:56:20;;;;;;;17.95;7.55;;;;;;;3.99;90.86;98750.03;5042812;28;20041;-54
2021/12/15 03:58:47;;;;;;;15.35;6.18;;;;;;;4.05;89.03;98751.13;5044791;28;20033;-56
2021/12/15 04:01:17;;;;;;;11.90;5.63;;;;;;;4.01;88.37;98760.53;5045360;28;20091;-57
2021/12/15 04:03:47;;;;;;;18.02;7.22;;;;;;;3.94;89.10;98764.94;5044837;28;20033;-53
2021/12/15 04:06:18;;;;;;;21.27;9.20;;;;;;;3.85;90.96;98761.47;5044725;28;20045;-57
2021/12/15 04:08:45;;;;;;;20.63;7.47;;;;;;;3.98;90.74;98761.72;5045585;28;20411;-57
2021/12/15 04:11:15;;;;;;;17.30;8.02;;;;;;;3.94;89.90;98763.09;5045459;28;20483;-57
2021/12/15 04:13:46;;;;;;;16.50;6.65;;;;;;;3.99;89.79;98760.75;5045194;28;20041;-57
2021/12/15 04:16:39;;;;;;;19.33;7.38;;;;;;;3.88;90.71;98766.47;5040992;28;20829;-57
2021/12/15 04:19:06;;;;;;;22.17;8.75;;;;;;;3.92;91.85;98766.97;5044006;28;20099;-58
2021/12/15 04:21:35;;;;;;;22.87;9.97;;;;;;;4.02;91.09;98762.22;5045009;28;20095;-58
2021/12/15 04:24:01;;;;;;;21.98;10.65;;;;;;;4.07;91.25;98767.06;5044808;28;20746;-58
2021/12/15 04:26:28;;;;;;;22.63;9.05;;;;;;;4.16;90.78;98763.31;5038389;28;20044;-57
2021/12/15 04:28:55;;;;;;;16.70;7.30;;;;;;;4.20;90.00;98759.28;5027360;28;20107;-58
2021/12/15 04:31:26;;;;;;;14.00;7.15;;;;;;;4.13;89.20;98761.00;5045078;28;20048;-56
2021/12/15 04:33:56;;;;;;;13.45;6.97;;;;;;;4.10;89.82;98759.50;5045039;28;20065;-56
2021/12/15 04:36:26;;;;;;;13.52;6.47;;;;;;;3.95;89.88;98770.13;5043876;28;20151;-57
2021/12/15 04:38:56;;;;;;;12.70;6.30;;;;;;;3.89;89.73;98769.00;5042857;28;20052;-57
2021/12/15 04:41:23;;;;;;;12.85;6.82;;;;;;;3.80;90.00;98770.03;5045892;28;20045;-55
2021/12/15 04:44:09;;;;;;;14.73;7.15;;;;;;;3.85;89.80;98772.19;5044806;28;20524;-57
2021/12/15 04:46:43;;;;;;;14.30;6.90;;;;;;;3.83;90.39;98768.84;5044474;28;20060;-57
2021/12/15 04:49:12;;;;;;;14.38;7.22;;;;;;;3.81;90.45;98777.06;5043868;28;20078;-55
2021/12/15 04:51:38;;;;;;;18.25;8.70;;;;;;;3.75;90.28;98767.88;5043029;28;20037;-57
2021/12/15 04:54:07;;;;;;;17.85;8.40;;;;;;;3.77;90.93;98765.00;5043533;28;20470;-56
2021/12/15 04:56:34;;;;;;;13.48;7.05;;;;;;;3.79;90.79;98771.03;5034774;28;20036;-57
2021/12/15 04:59:00;;;;;;;18.27;8.27;;;;;;;3.99;91.20;98763.41;5043460;28;20047;-56
2021/12/15 05:01:27;;;;;;;17.77;7.82;;;;;;;3.90;90.12;98772.47;5044303;28;20029;-53
2021/12/15 05:03:54;;;;;;;15.95;7.53;;;;;;;3.87;90.85;98767.50;5044886;28;20428;-53
2021/12/15 05:06:22;;;;;;;13.85;6.43;;;;;;;3.82;90.61;98770.69;5042924;28;20049;-54
2021/12/15 05:08:49;;;;;;;14.23;7.03;;;;;;;3.78;91.37;98774.72;5041425;28;20047;-54
2021/12/15 05:11:16;;;;;;;18.60;8.13;;;;;;;3.87;91.75;98768.31;5041642;28;20103;-55
2021/12/15 05:13:43;;;;;;;19.73;9.63;;;;;;;3.95;91.13;98772.81;5042570;28;20666;-55
2021/12/15 05:16:10;;;;;;;19.73;9.75;;;;;;;3.99;90.50;98774.16;5041570;28;20045;-56
2021/12/15 05:18:37;;;;;;;18.55;8.63;;;;;;;3.92;90.29;98777.69;5040098;28;20738;-57
2021/12/15 05:21:06;;;;;;;20.67;8.32;;;;;;;3.70;91.13;98780.09;5039099;28;20045;-57
2021/12/15 05:23:39;;;;;;;17.67;7.68;;;;;;;3.79;91.42;98784.41;5038557;28;21680;-57
2021/12/15 05:26:06;;;;;;;25.27;9.82;;;;;;;3.80;91.41;98783.44;5044961;28;20447;-57
2021/12/15 05:28:33;;;;;;;24.08;9.65;;;;;;;3.84;91.28;98789.28;5044806;28;20048;-58
2021/12/15 05:30:59;;;;;;;24.70;10.15;;;;;;;4.01;91.08;98785.50;5043299;28;20041;-58
2021/12/15 05:33:26;;;;;;;24.92;11.10;;;;;;;4.02;90.13;98784.50;5044431;28;20120;-58
2021/12/15 05:35:54;;;;;;;19.65;9.60;;;;;;;4.06;89.89;98793.03;5043766;28;20041;-58
2021/12/15 05:38:22;;;;;;;26.40;10.32;;;;;;;4.08;89.61;98795.53;5043328;28;20048;-57
2021/12/15 05:40:49;;;;;;;25.50;10.95;;;;;;;4.00;89.19;98797.25;5044200;28;20480;-57
2021/12/15 05:43:16;;;;;;;27.38;11.30;;;;;;;4.08;90.01;98790.16;5044152;28;20055;-57
2021/12/15 05:45:43;;;;;;;24.15;10.75;;;;;;;4.08;90.27;98793.69;5042022;28;20127;-57
2021/12/15 05:48:13;;;;;;;23.13;10.85;;;;;;;4.03;90.05;98788.84;5035508;28;20128;-57
2021/12/15 05:50:41;;;;;;;25.73;11.30;;;;;;;4.03;89.35;98801.41;5040662;28;20037;-58
2021/12/15 05:53:08;;;;;;;25.77;11.55;;;;;;;4.05;89.77;98798.56;5042671;28;20483;-57
2021/12/15 05:55:36;;;;;;;18.92;10.00;;;;;;;4.06;89.26;98800.22;5043072;28;20033;-57
2021/12/15 05:58:04;;;;;;;18.23;9.15;;;;;;;4.08;89.11;98800.88;5042673;28;20542;-57
2021/12/15 06:00:33;;;;;;;19.33;10.18;;;;;;;4.02;88.79;98799.75;5043213;28;20033;-62
2021/12/15 06:03:02;;;;;;;18.02;9.25;;;;;;;3.87;89.71;98805.00;5045558;28;20029;-61
2021/12/15 06:05:29;;;;;;;19.08;9.60;;;;;;;3.83;90.33;98809.03;5042900;28;20041;-61
2021/12/15 06:07:56;;;;;;;22.88;9.70;;;;;;;3.76;90.51;98807.03;5036520;28;20053;-61
2021/12/15 06:10:26;;;;;;;20.73;10.00;;;;;;;3.82;91.34;98816.22;5040146;28;20044;-61
2021/12/15 06:12:55;;;;;;;22.77;10.45;;;;;;;3.72;91.00;98812.94;5042787;28;20143;-61
2021/12/15 06:15:25;;;;;;;24.80;10.77;;;;;;;3.77;90.75;98819.41;5040677;28;20102;-60
2021/12/15 06:17:57;;;;;;;19.98;10.18;;;;;;;3.77;90.41;98816.75;5025551;28;20400;-60
2021/12/15 06:20:25;;;;;;;21.23;11.27;;;;;;;3.85;90.47;98809.69;5041768;28;20814;-60
2021/12/15 06:22:54;;;;;;;21.85;11.05;;;;;;;3.92;89.91;98815.19;5042108;28;20455;-60
2021/12/15 06:25:21;;;;;;;19.45;9.73;;;;;;;3.95;89.31;98817.53;5038052;28;20044;-60
2021/12/15 06:27:49;;;;;;;20.88;9.70;;;;;;;3.93;89.51;98814.19;5043876;28;20744;-60
2021/12/15 06:30:16;;;;;;;17.27;8.18;;;;;;;3.87;89.60;98824.59;5043539;28;20033;-60
2021/12/15 06:32:42;;;;;;;17.98;8.00;;;;;;;3.69;90.69;98819.44;5042700;28;20044;-60
2021/12/15 06:35:10;;;;;;;15.30;8.00;;;;;;;3.62;91.33;98821.97;5043286;28;20056;-60
2021/12/15 06:37:37;;;;;;;16.98;8.00;;;;;;;3.69;91.27;98821.31;5041336;28;20044;-60
2021/12/15 06:40:08;;;;;;;15.60;8.05;;;;;;;3.58;91.31;98830.53;5042617;28;20049;-60
2021/12/15 06:42:37;;;;;;;14.65;7.72;;;;;;;3.66;92.39;98827.00;5042547;28;20049;-60
2021/12/15 06:45:07;;;;;;;18.30;8.43;;;;;;;3.56;91.49;98829.84;5041045;28;20549;-60
2021/12/15 06:57:15;;;;;;;16.45;8.00;;;;;;;3.61;91.65;98830.19;5042100;28;20092;-60
2021/12/15 06:58:36;;;;;;;20.17;10.43;;;;;;;4.05;89.47;98836.09;5046799;28;20451;-60
2021/12/15 07:01:04;;;;;;;19.92;10.18;;;;;;;4.12;89.73;98839.72;5045956;28;20110;-61
2021/12/15 07:03:31;;;;;;;23.35;12.25;;;;;;;4.15;88.46;98844.75;5057444;28;20411;-61
2021/12/15 07:05:58;;;;;;;17.90;9.40;;;;;;;4.05;89.97;98854.88;5046862;28;20041;-61
2021/12/15 07:08:28;;;;;;;18.33;11.40;;;;;;;4.13;89.20;98852.16;5047443;28;20115;-61
2021/12/15 07:10:56;;;;;;;24.35;14.32;;;;;;;4.19;89.18;98856.81;5054528;28;20056;-61
2021/12/15 07:13:25;;;;;;;22.60;13.63;;;;;;;4.16;88.17;98860.66;5047580;28;20443;-60
2021/12/15 07:15:59;;;;;;;23.25;14.25;;;;;;;4.06;87.93;98860.06;5056421;28;20053;-60
2021/12/15 07:18:38;;;;;;;20.50;11.68;;;;;;;4.00;88.25;98861.56;5048969;28;20140;-60
2021/12/15 07:21:09;;;;;;;18.70;10.50;;;;;;;3.98;89.03;98868.13;5048203;28;20511;-59
2021/12/15 07:23:36;;;;;;;18.40;9.88;;;;;;;4.03;89.12;98876.47;5047345;28;20385;-60
2021/12/15 07:26:03;;;;;;;21.17;9.77;;;;;;;4.11;89.46;98879.13;5047892;28;20037;-59
2021/12/15 07:28:30;;;;;;;15.80;8.75;;;;;;;4.10;88.81;98880.16;5047465;28;20420;-59
2021/12/15 07:30:57;;;;;;;27.58;12.75;;;;;;;4.02;88.93;98882.84;5047751;28;20091;-60
2021/12/15 07:33:23;;;;;;;40.22;19.98;;;;;;;3.95;90.29;98885.38;5051260;28;20064;-60
2021/12/15 07:35:50;;;;;;;19.23;9.77;;;;;;;4.03;90.08;98889.88;5047088;28;20045;-58
2021/12/15 07:38:17;;;;;;;14.80;8.20;;;;;;;4.07;89.38;98890.34;5047398;28;20049;-60
2021/12/15 07:40:44;;;;;;;16.88;9.05;;;;;;;4.08;89.14;98890.19;5047695;28;20045;-60
2021/12/15 07:43:18;;;;;;;19.25;10.27;;;;;;;4.12;89.18;98896.88;5047248;28;20045;-60
2021/12/15 07:45:52;;;;;;;31.42;16.67;;;;;;;4.19;89.39;98901.53;5047155;28;20076;-59
2021/12/15 07:48:22;;;;;;;22.83;11.27;;;;;;;4.09;89.57;98905.25;5048873;28;20047;-59
2021/12/15 07:50:52;;;;;;;19.75;11.15;;;;;;;4.08;89.95;98900.06;5043973;28;20183;-60
2021/12/15 07:53:20;;;;;;;16.65;9.60;;;;;;;4.00;89.56;98893.75;5045605;28;20057;-60
2021/12/15 07:55:48;;;;;;;19.13;11.43;;;;;;;3.89;90.38;98896.78;5044286;28;20052;-60
2021/12/15 07:58:18;;;;;;;17.55;10.68;;;;;;;3.85;90.31;98898.97;5045395;28;20045;-60
2021/12/15 08:00:46;;;;;;;35.58;19.15;;;;;;;3.84;91.64;98904.50;5044429;28;20044;-61
2021/12/15 08:03:14;;;;;;;26.42;13.00;;;;;;;4.00;90.57;98900.94;5052289;28;20056;-60
2021/12/15 08:05:44;;;;;;;20.50;11.75;;;;;;;4.03;89.59;98911.31;5043919;28;20041;-60
2021/12/15 08:08:10;;;;;;;16.92;8.95;;;;;;;4.13;89.09;98903.91;5044663;28;20040;-60
2021/12/15 08:10:38;;;;;;;20.33;10.32;;;;;;;4.19;89.25;98899.69;5047280;28;20083;-60
2021/12/15 08:13:05;;;;;;;22.75;15.85;;;;;;;4.23;88.64;98901.03;5044767;28;20067;-60
2021/12/15 08:15:31;;;;;;;17.70;9.48;;;;;;;4.21;88.75;98912.94;5043492;28;20099;-60
2021/12/15 08:17:58;;;;;;;16.02;9.90;;;;;;;4.23;89.30;98914.44;5044642;28;20052;-60
2021/12/15 08:20:29;;;;;;;15.90;8.52;;;;;;;4.32;88.06;98911.72;5058780;28;20176;-60
2021/12/15 08:22:56;;;;;;;18.88;9.75;;;;;;;4.36;88.16;98915.75;5032832;28;20037;-60
2021/12/15 08:25:24;;;;;;;20.60;11.40;;;;;;;4.34;87.30;98918.59;5042173;28;20692;-60
2021/12/15 08:27:51;;;;;;;17.75;9.75;;;;;;;4.37;87.13;98918.25;5043454;28;20032;-60
2021/12/15 08:30:22;;;;;;;19.85;11.02;;;;;;;4.39;86.53;98913.53;5044154;28;20041;-60
2021/12/15 08:32:52;;;;;;;18.30;10.35;;;;;;;4.46;86.64;98918.22;5046936;28;20044;-60
2021/12/15 08:35:24;;;;;;;15.35;9.18;;;;;;;4.58;86.55;98922.19;5044763;28;20049;-60
2021/12/15 08:37:52;;;;;;;18.05;9.73;;;;;;;4.64;86.24;98920.66;5042091;28;20091;-60
2021/12/15 08:40:21;;;;;;;15.80;9.52;;;;;;;4.59;85.85;98921.19;5050919;28;20128;-61
2021/12/15 08:42:51;;;;;;;15.65;8.50;;;;;;;4.63;85.92;98925.19;5045628;28;20514;-60
2021/12/15 08:45:18;;;;;;;15.57;9.15;;;;;;;4.66;85.78;98927.53;5043259;28;20068;-58
2021/12/15 08:47:45;;;;;;;16.55;9.52;;;;;;;4.68;85.67;98935.38;5040071;28;20049;-61
2021/12/15 08:50:16;;;;;;;17.30;10.10;;;;;;;4.63;85.95;98935.91;5046780;28;20122;-61
2021/12/15 08:52:43;;;;;;;15.85;7.88;;;;;;;4.75;85.25;98932.84;5046020;28;20048;-61
2021/12/15 08:55:10;;;;;;;14.07;8.25;;;;;;;4.79;85.13;98935.00;5046081;28;20044;-61
2021/12/15 08:57:37;;;;;;;15.40;8.65;;;;;;;4.69;85.95;98929.84;5045803;28;20052;-60
2021/12/15 09:00:07;;;;;;;14.20;8.77;;;;;;;4.76;85.35;98932.66;5046255;28;20191;-61
2021/12/15 09:02:35;;;;;;;13.32;8.63;;;;;;;4.69;84.82;98927.16;5057593;28;20044;-61
2021/12/15 09:05:04;;;;;;;14.95;8.13;;;;;;;4.58;85.27;98924.88;5046889;28;20045;-61
2021/12/15 09:07:30;;;;;;;15.40;8.85;;;;;;;4.62;85.35;98928.03;5046000;28;20455;-61
2021/12/15 09:09:57;;;;;;;15.05;8.40;;;;;;;4.71;84.67;98928.84;5049468;28;20098;-61
2021/12/15 09:12:24;;;;;;;21.95;16.92;;;;;;;4.69;84.87;98932.53;5050692;28;20029;-60
2021/12/15 09:14:51;;;;;;;20.27;12.27;;;;;;;4.76;84.89;98937.19;5045756;28;20032;-62
2021/12/15 09:17:17;;;;;;;16.65;10.40;;;;;;;4.56;84.94;98942.97;5059585;28;20041;-61
2021/12/15 09:19:44;;;;;;;16.60;10.65;;;;;;;4.77;85.06;98944.22;5054480;28;20068;-61
2021/12/15 09:22:10;;;;;;;16.50;9.32;;;;;;;4.54;84.62;98940.47;5045043;28;20045;-61
2021/12/15 09:24:37;;;;;;;17.67;10.40;;;;;;;4.56;84.66;98945.66;5046098;28;20091;-61
2021/12/15 09:27:04;;;;;;;17.35;10.38;;;;;;;4.63;84.38;98952.00;5045099;28;20053;-61
2021/12/15 09:29:31;;;;;;;15.70;8.88;;;;;;;4.74;83.38;98947.25;5045757;28;20475;-60
2021/12/15 09:31:58;;;;;;;13.23;8.70;;;;;;;4.81;83.01;98950.94;5052666;28;20040;-61
2021/12/15 09:34:26;;;;;;;27.55;14.60;;;;;;;4.65;83.85;98951.84;5052862;28;20041;-61
2021/12/15 09:36:53;;;;;;;14.95;8.50;;;;;;;4.63;84.06;98960.06;5045039;28;20052;-61
2021/12/15 09:39:22;;;;;;;41.28;20.80;;;;;;;4.55;84.76;98958.25;5045356;28;20032;-61
2021/12/15 09:41:54;;;;;;;30.77;15.20;;;;;;;4.42;85.09;98949.91;5045900;28;20071;-61
2021/12/15 09:44:23;;;;;;;18.52;10.38;;;;;;;4.36;84.60;98948.78;5046102;28;20083;-61
2021/12/15 10:03:43;;;;;;;10.93;6.15;;;;;;;4.75;82.46;98960.50;5061410;28;20040;-61
2021/12/15 10:11:50;;;;;;;9.93;5.00;;;;;;;4.67;82.34;98952.50;5058906;28;20049;-61
2021/12/15 10:19:59;;;;;;;8.90;4.93;;;;;;;4.86;82.16;98953.91;5054350;28;20059;-61
2021/12/15 10:22:42;;;;;;;9.18;4.90;;;;;;;4.85;81.88;98952.25;5045341;28;20501;-60
2021/12/15 10:25:17;;;;;;;8.98;5.13;;;;;;;4.92;80.58;98949.69;5048601;28;20041;-60
2021/12/15 10:27:47;;;;;;;8.50;5.20;;;;;;;4.99;80.33;98950.66;5032460;28;20040;-59
2021/12/15 10:30:18;;;;;;;8.82;4.90;;;;;;;4.90;80.17;98954.41;5048957;28;20056;-60
2021/12/15 10:32:48;;;;;;;6.80;4.25;;;;;;;4.86;80.28;98945.84;5049935;28;20184;-59
2021/12/15 10:35:20;;;;;;;7.95;5.55;;;;;;;4.83;80.60;98946.19;5039875;28;20045;-59
2021/12/15 10:38:21;;;;;;;9.43;5.47;;;;;;;4.85;80.69;98943.34;5042303;28;20087;-60
2021/12/15 10:41:08;;;;;;;10.10;4.45;;;;;;;4.75;80.76;98941.72;5042408;28;20052;-59
2021/12/15 10:43:54;;;;;;;8.15;4.78;;;;;;;4.78;81.65;98944.06;5035779;28;20509;-59
2021/12/15 10:46:24;;;;;;;11.05;6.78;;;;;;;4.79;82.77;98936.84;5048790;28;20122;-60
2021/12/15 10:48:56;;;;;;;14.82;7.68;;;;;;;4.78;81.89;98941.38;5054492;28;20045;-60
2021/12/15 10:51:33;;;;;;;9.50;5.75;;;;;;;4.66;81.87;98929.34;5051728;28;20041;-61
2021/12/15 10:54:12;;;;;;;8.88;4.80;;;;;;;4.82;81.06;98934.66;5047454;28;20040;-61
2021/12/15 10:56:53;;;;;;;10.50;5.18;;;;;;;4.77;80.98;98936.19;5044343;28;20041;-60
2021/12/15 10:59:21;;;;;;;8.15;4.80;;;;;;;4.81;81.76;98932.13;5045537;28;20463;-61
2021/12/15 11:01:50;;;;;;;11.32;5.53;;;;;;;4.79;81.23;98934.19;5047741;28;20090;-61
2021/12/15 11:04:34;;;;;;;6.35;3.78;;;;;;;4.71;80.53;98931.53;5049661;28;20115;-59
2021/12/15 11:07:01;;;;;;;7.75;4.20;;;;;;;4.71;80.64;98928.84;5043925;28;20052;-59
2021/12/15 11:09:33;;;;;;;7.18;3.35;;;;;;;4.60;81.38;98930.06;5044897;28;20041;-60
2021/12/15 11:12:01;;;;;;;6.90;3.92;;;;;;;4.54;80.86;98932.41;5043952;28;20382;-59
2021/12/15 11:14:31;;;;;;;7.35;4.82;;;;;;;4.68;80.36;98924.63;5041763;28;20408;-60
2021/12/15 11:17:15;;;;;;;7.95;4.32;;;;;;;4.73;81.17;98924.13;5045530;28;20052;-60
2021/12/15 11:19:54;;;;;;;8.35;4.32;;;;;;;4.73;80.97;98922.28;5045258;28;20049;-61
2021/12/15 11:22:40;;;;;;;8.68;4.45;;;;;;;4.76;79.93;98921.91;5050006;28;20037;-60
2021/12/15 11:25:18;;;;;;;7.63;4.75;;;;;;;4.76;79.90;98921.91;5051308;28;20036;-60
2021/12/15 11:28:22;;;;;;;6.30;4.10;;;;;;;4.98;79.86;98924.84;5052810;28;20059;-60
2021/12/15 11:31:13;;;;;;;6.93;3.83;;;;;;;4.60;81.63;98914.78;5042477;28;20061;-61
2021/12/15 11:33:46;;;;;;;7.55;4.07;;;;;;;4.77;81.86;98920.09;5043341;28;20115;-60
2021/12/15 11:36:18;;;;;;;7.30;3.95;;;;;;;4.65;81.03;98912.41;5036932;28;20052;-61
2021/12/15 11:38:52;;;;;;;6.63;3.70;;;;;;;4.77;80.76;98912.88;5043927;28;20566;-59
2021/12/15 11:41:26;;;;;;;5.95;3.80;;;;;;;4.74;80.29;98917.75;5047847;28;20048;-60
2021/12/15 11:43:56;;;;;;;8.00;4.10;;;;;;;4.65;82.09;98917.78;5045303;28;20072;-60
2021/12/15 11:46:42;;;;;;;6.78;3.75;;;;;;;4.71;80.59;98910.06;5045301;28;20122;-61
2021/12/15 11:49:19;;;;;;;6.70;3.75;;;;;;;4.88;79.42;98905.44;5039493;28;20041;-59
2021/12/15 11:51:50;;;;;;;7.32;3.90;;;;;;;4.85;79.83;98898.56;5037862;28;20459;-60
2021/12/15 11:54:24;;;;;;;6.65;3.92;;;;;;;4.83;79.14;98903.25;5038961;28;20046;-60
2021/12/15 11:57:03;;;;;;;7.60;3.85;;;;;;;4.73;80.01;98898.13;5041079;28;20048;-60
2021/12/15 11:59:31;;;;;;;6.53;3.60;;;;;;;4.73;79.89;98897.28;5039646;28;20059;-60
2021/12/15 12:02:05;;;;;;;7.82;4.78;;;;;;;4.73;79.85;98903.50;5037798;28;20037;-61
2021/12/15 12:04:37;;;;;;;7.50;4.32;;;;;;;4.80;80.04;98893.72;5040158;28;20048;-61
2021/12/15 12:07:26;;;;;;;7.28;4.47;;;;;;;4.82;78.79;98896.22;5038190;28;20095;-60
2021/12/15 12:10:07;;;;;;;7.43;4.15;;;;;;;4.99;77.60;98888.94;5048104;28;20045;-61
2021/12/15 12:12:40;;;;;;;7.25;4.38;;;;;;;4.89;78.59;98891.00;5038808;28;20040;-60
2021/12/15 12:15:16;;;;;;;8.57;4.88;;;;;;;4.76;79.60;98883.53;5055570;28;20049;-60
2021/12/15 12:17:46;;;;;;;9.05;5.40;;;;;;;4.88;79.16;98878.59;5044275;28;20040;-61
2021/12/15 12:20:18;;;;;;;6.72;4.85;;;;;;;4.69;79.39;98881.53;5044785;28;20049;-61
2021/12/15 12:22:46;;;;;;;7.40;4.50;;;;;;;4.57;80.23;98879.44;5044334;28;20045;-59
2021/12/15 12:25:17;;;;;;;8.65;5.47;;;;;;;4.50;80.84;98874.75;5045532;28;20060;-61
2021/12/15 12:27:45;;;;;;;8.68;5.25;;;;;;;4.69;80.74;98873.50;5044111;28;20095;-60
2021/12/15 12:30:19;;;;;;;12.90;6.45;;;;;;;4.74;80.10;98872.97;5044600;28;20049;-60
2021/12/15 12:32:47;;;;;;;9.70;5.35;;;;;;;4.64;80.90;98872.38;5052052;28;20543;-61
2021/12/15 12:35:18;;;;;;;9.80;5.85;;;;;;;4.79;80.22;98861.72;5044850;28;20065;-61
2021/12/15 12:37:52;;;;;;;10.13;5.80;;;;;;;4.78;80.01;98862.72;5038271;28;20041;-61
2021/12/15 12:40:30;;;;;;;13.13;8.82;;;;;;;4.55;80.50;98863.53;5044465;28;20045;-58
2021/12/15 12:42:57;;;;;;;12.98;7.00;;;;;;;4.52;80.13;98866.53;5044875;28;20040;-60
2021/12/15 12:45:37;;;;;;;12.75;6.63;;;;;;;4.64;80.59;98873.19;5044787;28;20044;-60
2021/12/15 12:59:42;;;;;;;12.23;7.15;;;;;;;4.10;81.67;98857.84;5043581;28;20040;-61
2021/12/15 13:02:24;;;;;;;12.07;7.53;;;;;;;4.00;82.35;98856.22;5045379;28;20059;-59
2021/12/15 13:04:56;;;;;;;12.60;6.90;;;;;;;4.21;82.01;98857.47;5038244;28;20047;-58
2021/12/15 13:07:49;;;;;;;13.38;7.13;;;;;;;4.29;81.46;98860.13;5043840;28;20464;-60
2021/12/15 13:10:41;;;;;;;11.38;7.05;;;;;;;4.47;81.80;98853.69;5049378;28;20506;-59